Four Forks, Louisiana
Current Conditions -  °F | °C
As of 2:56 AM on Sunday 23 Nov 2014 (Local Time) from KSHV Reporting Station
Overcast Overcast  
Wind Chill: 63°   Ceiling: 400
Heat Index: 63°   Visibility: 8mi
Dew Point: 62°   Wind: 6mph
Humidity: 97%   Direction: 230°SW
Pressure: 29.68"   Gusts: NA
Location:  32.1652°N, 93.9629°W
Report Text: KSHV 230856Z 23005KT 8SM OVC004 17/17 A2968 RMK AO2 RAE54 SLP048 P0003 60053 T01720167 56033
Loading
Personal Weather Stations






























Interactive Weather Map New forecast layout! Learn more

10-Day Weather Forecast

Advertisements
Track Severe Weather on mobile